sensor_id;sensor_type;location;lat;lon;timestamp;P1;durP1;ratioP1;P2;durP2;ratioP2
9328;SDS011;4703;48.748;19.142;2022-07-22T00:00:40;9.23;;;8.33;;
9328;SDS011;4703;48.748;19.142;2022-07-22T00:03:07;8.97;;;8.17;;
9328;SDS011;4703;48.748;19.142;2022-07-22T00:05:35;7.90;;;7.30;;
9328;SDS011;4703;48.748;19.142;2022-07-22T00:08:02;7.50;;;6.80;;
9328;SDS011;4703;48.748;19.142;2022-07-22T00:10:29;8.57;;;7.03;;
9328;SDS011;4703;48.748;19.142;2022-07-22T00:12:56;7.70;;;7.10;;
9328;SDS011;4703;48.748;19.142;2022-07-22T00:15:23;7.60;;;6.70;;
9328;SDS011;4703;48.748;19.142;2022-07-22T00:17:50;8.30;;;7.17;;
9328;SDS011;4703;48.748;19.142;2022-07-22T00:20:17;8.13;;;7.30;;
9328;SDS011;4703;48.748;19.142;2022-07-22T00:22:45;8.73;;;7.93;;
9328;SDS011;4703;48.748;19.142;2022-07-22T00:25:12;7.57;;;6.83;;
9328;SDS011;4703;48.748;19.142;2022-07-22T00:27:39;9.60;;;8.43;;
9328;SDS011;4703;48.748;19.142;2022-07-22T00:30:06;9.47;;;8.47;;
9328;SDS011;4703;48.748;19.142;2022-07-22T00:32:35;10.93;;;8.93;;
9328;SDS011;4703;48.748;19.142;2022-07-22T00:35:02;11.00;;;8.00;;
9328;SDS011;4703;48.748;19.142;2022-07-22T00:37:30;9.23;;;8.53;;
9328;SDS011;4703;48.748;19.142;2022-07-22T00:39:57;9.40;;;7.50;;
9328;SDS011;4703;48.748;19.142;2022-07-22T00:42:24;8.23;;;7.50;;
9328;SDS011;4703;48.748;19.142;2022-07-22T00:44:53;8.57;;;7.67;;
9328;SDS011;4703;48.748;19.142;2022-07-22T00:47:22;7.93;;;6.93;;
9328;SDS011;4703;48.748;19.142;2022-07-22T00:49:49;7.90;;;7.20;;
9328;SDS011;4703;48.748;19.142;2022-07-22T00:52:18;8.30;;;7.60;;
9328;SDS011;4703;48.748;19.142;2022-07-22T00:54:46;8.80;;;7.90;;
9328;SDS011;4703;48.748;19.142;2022-07-22T00:57:13;8.37;;;7.67;;
9328;SDS011;4703;48.748;19.142;2022-07-22T00:59:40;9.43;;;8.63;;
9328;SDS011;4703;48.748;19.142;2022-07-22T01:02:08;8.50;;;7.80;;
9328;SDS011;4703;48.748;19.142;2022-07-22T01:04:36;8.97;;;8.20;;
9328;SDS011;4703;48.748;19.142;2022-07-22T01:07:03;9.20;;;8.40;;
9328;SDS011;4703;48.748;19.142;2022-07-22T01:09:30;9.40;;;8.50;;
9328;SDS011;4703;48.748;19.142;2022-07-22T01:11:58;8.93;;;8.17;;
9328;SDS011;4703;48.748;19.142;2022-07-22T01:14:26;9.07;;;8.17;;
9328;SDS011;4703;48.748;19.142;2022-07-22T01:16:53;12.23;;;8.37;;
9328;SDS011;4703;48.748;19.142;2022-07-22T01:19:20;8.60;;;7.80;;
9328;SDS011;4703;48.748;19.142;2022-07-22T01:21:47;11.70;;;7.53;;
9328;SDS011;4703;48.748;19.142;2022-07-22T01:24:14;9.37;;;8.63;;
9328;SDS011;4703;48.748;19.142;2022-07-22T01:26:41;8.47;;;7.47;;
9328;SDS011;4703;48.748;19.142;2022-07-22T01:29:08;11.83;;;7.70;;
9328;SDS011;4703;48.748;19.142;2022-07-22T01:31:35;8.10;;;7.33;;
9328;SDS011;4703;48.748;19.142;2022-07-22T01:34:02;8.33;;;6.70;;
9328;SDS011;4703;48.748;19.142;2022-07-22T01:36:29;7.57;;;6.83;;
9328;SDS011;4703;48.748;19.142;2022-07-22T01:38:56;8.30;;;7.60;;
9328;SDS011;4703;48.748;19.142;2022-07-22T01:41:24;7.67;;;7.07;;
9328;SDS011;4703;48.748;19.142;2022-07-22T01:43:51;8.07;;;6.97;;
9328;SDS011;4703;48.748;19.142;2022-07-22T01:46:18;7.43;;;6.83;;
9328;SDS011;4703;48.748;19.142;2022-07-22T01:48:45;7.30;;;6.60;;
9328;SDS011;4703;48.748;19.142;2022-07-22T01:51:12;7.33;;;6.63;;
9328;SDS011;4703;48.748;19.142;2022-07-22T01:53:39;8.33;;;7.47;;
9328;SDS011;4703;48.748;19.142;2022-07-22T01:56:06;9.93;;;7.20;;
9328;SDS011;4703;48.748;19.142;2022-07-22T01:58:33;8.60;;;7.13;;
9328;SDS011;4703;48.748;19.142;2022-07-22T02:01:05;7.70;;;7.10;;
9328;SDS011;4703;48.748;19.142;2022-07-22T02:03:34;8.80;;;7.93;;
9328;SDS011;4703;48.748;19.142;2022-07-22T02:06:02;8.67;;;7.87;;
9328;SDS011;4703;48.748;19.142;2022-07-22T02:08:30;8.30;;;7.50;;
9328;SDS011;4703;48.748;19.142;2022-07-22T02:10:57;7.80;;;7.03;;
9328;SDS011;4703;48.748;19.142;2022-07-22T02:13:24;7.23;;;6.73;;
9328;SDS011;4703;48.748;19.142;2022-07-22T02:15:51;6.70;;;6.20;;
9328;SDS011;4703;48.748;19.142;2022-07-22T02:18:18;8.00;;;7.20;;
9328;SDS011;4703;48.748;19.142;2022-07-22T02:20:45;7.77;;;7.10;;
9328;SDS011;4703;48.748;19.142;2022-07-22T02:23:13;7.20;;;6.60;;
9328;SDS011;4703;48.748;19.142;2022-07-22T02:25:40;7.77;;;6.97;;
9328;SDS011;4703;48.748;19.142;2022-07-22T02:28:08;8.50;;;6.93;;
9328;SDS011;4703;48.748;19.142;2022-07-22T02:30:35;9.00;;;7.10;;
9328;SDS011;4703;48.748;19.142;2022-07-22T02:33:03;7.50;;;6.90;;
9328;SDS011;4703;48.748;19.142;2022-07-22T02:35:31;11.47;;;8.00;;
9328;SDS011;4703;48.748;19.142;2022-07-22T02:37:58;6.97;;;6.37;;
9328;SDS011;4703;48.748;19.142;2022-07-22T02:40:27;8.03;;;7.30;;
9328;SDS011;4703;48.748;19.142;2022-07-22T02:42:54;8.50;;;7.77;;
9328;SDS011;4703;48.748;19.142;2022-07-22T02:45:21;8.27;;;7.57;;
9328;SDS011;4703;48.748;19.142;2022-07-22T02:47:49;8.60;;;7.73;;
9328;SDS011;4703;48.748;19.142;2022-07-22T02:50:21;7.70;;;7.03;;
9328;SDS011;4703;48.748;19.142;2022-07-22T02:52:49;8.73;;;7.87;;
9328;SDS011;4703;48.748;19.142;2022-07-22T02:55:16;8.00;;;7.30;;
9328;SDS011;4703;48.748;19.142;2022-07-22T02:57:44;7.60;;;6.90;;
9328;SDS011;4703;48.748;19.142;2022-07-22T03:00:12;8.97;;;7.97;;
9328;SDS011;4703;48.748;19.142;2022-07-22T03:02:39;7.90;;;7.20;;
9328;SDS011;4703;48.748;19.142;2022-07-22T03:05:07;8.77;;;7.40;;
9328;SDS011;4703;48.748;19.142;2022-07-22T03:07:34;8.60;;;7.70;;
9328;SDS011;4703;48.748;19.142;2022-07-22T03:10:01;9.70;;;7.47;;
9328;SDS011;4703;48.748;19.142;2022-07-22T03:12:29;9.70;;;8.73;;
9328;SDS011;4703;48.748;19.142;2022-07-22T03:14:56;8.03;;;7.27;;
9328;SDS011;4703;48.748;19.142;2022-07-22T03:17:23;7.90;;;7.30;;
9328;SDS011;4703;48.748;19.142;2022-07-22T03:19:50;9.77;;;8.70;;
9328;SDS011;4703;48.748;19.142;2022-07-22T03:22:17;8.70;;;7.40;;
9328;SDS011;4703;48.748;19.142;2022-07-22T03:24:44;10.43;;;7.77;;
9328;SDS011;4703;48.748;19.142;2022-07-22T03:27:11;9.10;;;6.83;;
9328;SDS011;4703;48.748;19.142;2022-07-22T03:29:38;7.67;;;6.97;;
9328;SDS011;4703;48.748;19.142;2022-07-22T03:32:05;8.60;;;7.13;;
9328;SDS011;4703;48.748;19.142;2022-07-22T03:34:32;8.53;;;7.57;;
9328;SDS011;4703;48.748;19.142;2022-07-22T03:36:59;8.57;;;7.87;;
9328;SDS011;4703;48.748;19.142;2022-07-22T03:39:26;8.30;;;7.50;;
9328;SDS011;4703;48.748;19.142;2022-07-22T03:41:53;9.00;;;7.47;;
9328;SDS011;4703;48.748;19.142;2022-07-22T03:44:20;7.57;;;6.87;;
9328;SDS011;4703;48.748;19.142;2022-07-22T03:46:47;8.20;;;7.40;;
9328;SDS011;4703;48.748;19.142;2022-07-22T03:49:14;8.50;;;7.70;;
9328;SDS011;4703;48.748;19.142;2022-07-22T03:51:41;7.73;;;6.93;;
9328;SDS011;4703;48.748;19.142;2022-07-22T03:54:08;9.10;;;7.43;;
9328;SDS011;4703;48.748;19.142;2022-07-22T03:56:35;8.43;;;7.70;;
9328;SDS011;4703;48.748;19.142;2022-07-22T03:59:02;8.10;;;7.30;;
9328;SDS011;4703;48.748;19.142;2022-07-22T04:01:29;8.00;;;7.30;;
9328;SDS011;4703;48.748;19.142;2022-07-22T04:03:56;7.93;;;7.30;;
9328;SDS011;4703;48.748;19.142;2022-07-22T04:06:29;9.40;;;7.40;;
9328;SDS011;4703;48.748;19.142;2022-07-22T04:08:56;9.23;;;8.33;;
9328;SDS011;4703;48.748;19.142;2022-07-22T04:11:24;9.20;;;7.47;;
9328;SDS011;4703;48.748;19.142;2022-07-22T04:13:52;8.40;;;7.43;;
9328;SDS011;4703;48.748;19.142;2022-07-22T04:16:19;7.87;;;7.17;;
9328;SDS011;4703;48.748;19.142;2022-07-22T04:18:46;9.13;;;8.17;;
9328;SDS011;4703;48.748;19.142;2022-07-22T04:21:13;10.47;;;7.63;;
9328;SDS011;4703;48.748;19.142;2022-07-22T04:23:40;10.63;;;8.20;;
9328;SDS011;4703;48.748;19.142;2022-07-22T04:26:07;9.30;;;8.40;;
9328;SDS011;4703;48.748;19.142;2022-07-22T04:28:34;9.30;;;8.40;;
9328;SDS011;4703;48.748;19.142;2022-07-22T04:31:02;9.80;;;8.87;;
9328;SDS011;4703;48.748;19.142;2022-07-22T04:33:30;9.00;;;8.20;;
9328;SDS011;4703;48.748;19.142;2022-07-22T04:35:57;9.73;;;8.00;;
9328;SDS011;4703;48.748;19.142;2022-07-22T04:38:25;8.43;;;7.73;;
9328;SDS011;4703;48.748;19.142;2022-07-22T04:40:52;9.30;;;8.30;;
9328;SDS011;4703;48.748;19.142;2022-07-22T04:43:20;12.40;;;9.23;;
9328;SDS011;4703;48.748;19.142;2022-07-22T04:45:48;9.17;;;8.27;;
9328;SDS011;4703;48.748;19.142;2022-07-22T04:48:15;9.13;;;8.20;;
9328;SDS011;4703;48.748;19.142;2022-07-22T04:50:43;10.93;;;8.57;;
9328;SDS011;4703;48.748;19.142;2022-07-22T04:53:10;9.63;;;8.63;;
9328;SDS011;4703;48.748;19.142;2022-07-22T04:55:38;8.30;;;7.50;;
9328;SDS011;4703;48.748;19.142;2022-07-22T04:58:05;10.30;;;8.60;;
9328;SDS011;4703;48.748;19.142;2022-07-22T05:00:40;14.57;;;8.50;;
9328;SDS011;4703;48.748;19.142;2022-07-22T05:03:07;10.53;;;9.43;;
9328;SDS011;4703;48.748;19.142;2022-07-22T05:05:34;8.97;;;8.20;;
9328;SDS011;4703;48.748;19.142;2022-07-22T05:08:01;12.03;;;9.33;;
9328;SDS011;4703;48.748;19.142;2022-07-22T05:10:28;9.50;;;8.70;;
9328;SDS011;4703;48.748;19.142;2022-07-22T05:12:55;9.73;;;8.17;;
9328;SDS011;4703;48.748;19.142;2022-07-22T05:15:22;9.83;;;8.73;;
9328;SDS011;4703;48.748;19.142;2022-07-22T05:17:49;9.90;;;8.90;;
9328;SDS011;4703;48.748;19.142;2022-07-22T05:20:16;9.93;;;8.93;;
9328;SDS011;4703;48.748;19.142;2022-07-22T05:22:45;10.23;;;8.83;;
9328;SDS011;4703;48.748;19.142;2022-07-22T05:25:12;11.60;;;9.40;;
9328;SDS011;4703;48.748;19.142;2022-07-22T05:27:43;8.97;;;8.13;;
9328;SDS011;4703;48.748;19.142;2022-07-22T05:30:17;9.87;;;8.93;;
9328;SDS011;4703;48.748;19.142;2022-07-22T05:32:49;10.33;;;9.33;;
9328;SDS011;4703;48.748;19.142;2022-07-22T05:35:16;10.77;;;9.67;;
9328;SDS011;4703;48.748;19.142;2022-07-22T05:37:43;12.43;;;10.73;;
9328;SDS011;4703;48.748;19.142;2022-07-22T05:40:10;9.90;;;8.80;;
9328;SDS011;4703;48.748;19.142;2022-07-22T05:42:38;11.40;;;9.00;;
9328;SDS011;4703;48.748;19.142;2022-07-22T05:45:05;10.97;;;10.03;;
9328;SDS011;4703;48.748;19.142;2022-07-22T05:47:32;12.00;;;9.57;;
9328;SDS011;4703;48.748;19.142;2022-07-22T05:49:59;9.83;;;8.83;;
9328;SDS011;4703;48.748;19.142;2022-07-22T05:52:26;9.43;;;8.53;;
9328;SDS011;4703;48.748;19.142;2022-07-22T05:54:53;12.47;;;9.33;;
9328;SDS011;4703;48.748;19.142;2022-07-22T05:57:20;10.10;;;9.20;;
9328;SDS011;4703;48.748;19.142;2022-07-22T05:59:47;11.03;;;8.80;;
9328;SDS011;4703;48.748;19.142;2022-07-22T06:02:14;13.90;;;10.17;;
9328;SDS011;4703;48.748;19.142;2022-07-22T06:04:41;9.60;;;8.67;;
9328;SDS011;4703;48.748;19.142;2022-07-22T06:07:08;12.53;;;9.93;;
9328;SDS011;4703;48.748;19.142;2022-07-22T06:09:35;11.33;;;10.10;;
9328;SDS011;4703;48.748;19.142;2022-07-22T06:12:02;11.13;;;9.90;;
9328;SDS011;4703;48.748;19.142;2022-07-22T06:14:29;10.73;;;8.93;;
9328;SDS011;4703;48.748;19.142;2022-07-22T06:16:56;13.13;;;10.07;;
9328;SDS011;4703;48.748;19.142;2022-07-22T06:19:23;10.30;;;9.23;;
9328;SDS011;4703;48.748;19.142;2022-07-22T06:21:50;11.20;;;10.07;;
9328;SDS011;4703;48.748;19.142;2022-07-22T06:24:17;11.30;;;10.10;;
9328;SDS011;4703;48.748;19.142;2022-07-22T06:26:50;11.77;;;10.17;;
9328;SDS011;4703;48.748;19.142;2022-07-22T06:29:17;13.10;;;10.60;;
9328;SDS011;4703;48.748;19.142;2022-07-22T06:31:44;12.77;;;10.10;;
9328;SDS011;4703;48.748;19.142;2022-07-22T06:34:11;10.33;;;8.70;;
9328;SDS011;4703;48.748;19.142;2022-07-22T06:36:38;12.40;;;9.97;;
9328;SDS011;4703;48.748;19.142;2022-07-22T06:39:05;11.03;;;9.90;;
9328;SDS011;4703;48.748;19.142;2022-07-22T06:41:32;10.37;;;9.30;;
9328;SDS011;4703;48.748;19.142;2022-07-22T06:43:59;11.67;;;10.00;;
9328;SDS011;4703;48.748;19.142;2022-07-22T06:46:26;11.23;;;10.20;;
9328;SDS011;4703;48.748;19.142;2022-07-22T06:48:54;14.27;;;10.67;;
9328;SDS011;4703;48.748;19.142;2022-07-22T06:51:23;11.43;;;10.33;;
9328;SDS011;4703;48.748;19.142;2022-07-22T06:53:52;11.27;;;10.10;;
9328;SDS011;4703;48.748;19.142;2022-07-22T06:56:19;11.20;;;10.03;;
9328;SDS011;4703;48.748;19.142;2022-07-22T06:58:46;15.30;;;9.70;;
9328;SDS011;4703;48.748;19.142;2022-07-22T07:01:13;10.90;;;9.80;;
9328;SDS011;4703;48.748;19.142;2022-07-22T07:03:41;10.87;;;9.63;;
9328;SDS011;4703;48.748;19.142;2022-07-22T07:06:08;13.23;;;10.10;;
9328;SDS011;4703;48.748;19.142;2022-07-22T07:08:40;25.90;;;20.70;;
9328;SDS011;4703;48.748;19.142;2022-07-22T07:11:07;43.53;;;34.60;;
9328;SDS011;4703;48.748;19.142;2022-07-22T07:13:35;54.00;;;43.30;;
9328;SDS011;4703;48.748;19.142;2022-07-22T07:16:02;22.67;;;16.50;;
9328;SDS011;4703;48.748;19.142;2022-07-22T07:18:29;13.77;;;12.47;;
9328;SDS011;4703;48.748;19.142;2022-07-22T07:20:57;12.77;;;11.57;;
9328;SDS011;4703;48.748;19.142;2022-07-22T07:23:24;11.20;;;9.93;;
9328;SDS011;4703;48.748;19.142;2022-07-22T07:25:51;10.33;;;9.43;;
9328;SDS011;4703;48.748;19.142;2022-07-22T07:28:19;10.00;;;8.93;;
9328;SDS011;4703;48.748;19.142;2022-07-22T07:30:47;14.03;;;10.57;;
9328;SDS011;4703;48.748;19.142;2022-07-22T07:33:14;11.47;;;10.30;;
9328;SDS011;4703;48.748;19.142;2022-07-22T07:35:41;23.20;;;20.90;;
9328;SDS011;4703;48.748;19.142;2022-07-22T07:38:09;36.13;;;32.33;;
9328;SDS011;4703;48.748;19.142;2022-07-22T07:40:36;23.10;;;20.57;;
9328;SDS011;4703;48.748;19.142;2022-07-22T07:43:03;20.77;;;11.50;;
9328;SDS011;4703;48.748;19.142;2022-07-22T07:45:30;13.30;;;10.70;;
9328;SDS011;4703;48.748;19.142;2022-07-22T07:47:57;13.90;;;10.40;;
9328;SDS011;4703;48.748;19.142;2022-07-22T07:50:25;11.10;;;10.00;;
9328;SDS011;4703;48.748;19.142;2022-07-22T07:52:52;16.90;;;10.30;;
9328;SDS011;4703;48.748;19.142;2022-07-22T07:55:20;10.87;;;9.87;;
9328;SDS011;4703;48.748;19.142;2022-07-22T07:57:47;10.27;;;9.47;;
9328;SDS011;4703;48.748;19.142;2022-07-22T08:00:19;12.57;;;10.40;;
9328;SDS011;4703;48.748;19.142;2022-07-22T08:02:55;10.17;;;9.27;;
9328;SDS011;4703;48.748;19.142;2022-07-22T08:05:22;11.10;;;9.97;;
9328;SDS011;4703;48.748;19.142;2022-07-22T08:07:50;9.33;;;8.63;;
9328;SDS011;4703;48.748;19.142;2022-07-22T08:10:18;11.90;;;8.20;;
9328;SDS011;4703;48.748;19.142;2022-07-22T08:13:06;9.40;;;8.50;;
9328;SDS011;4703;48.748;19.142;2022-07-22T08:15:34;10.13;;;8.97;;
9328;SDS011;4703;48.748;19.142;2022-07-22T08:18:02;9.80;;;8.90;;
9328;SDS011;4703;48.748;19.142;2022-07-22T08:20:30;9.80;;;8.77;;
9328;SDS011;4703;48.748;19.142;2022-07-22T08:22:58;9.83;;;7.33;;
9328;SDS011;4703;48.748;19.142;2022-07-22T08:25:25;8.87;;;7.70;;
9328;SDS011;4703;48.748;19.142;2022-07-22T08:27:53;9.23;;;8.33;;
9328;SDS011;4703;48.748;19.142;2022-07-22T08:30:20;8.70;;;7.20;;
9328;SDS011;4703;48.748;19.142;2022-07-22T08:32:49;7.33;;;6.70;;
9328;SDS011;4703;48.748;19.142;2022-07-22T08:35:17;8.23;;;7.00;;
9328;SDS011;4703;48.748;19.142;2022-07-22T08:37:45;7.70;;;6.90;;
9328;SDS011;4703;48.748;19.142;2022-07-22T08:40:14;7.30;;;6.70;;
9328;SDS011;4703;48.748;19.142;2022-07-22T08:42:45;8.30;;;6.80;;
9328;SDS011;4703;48.748;19.142;2022-07-22T08:45:13;8.33;;;6.50;;
9328;SDS011;4703;48.748;19.142;2022-07-22T08:47:44;7.70;;;6.07;;
9328;SDS011;4703;48.748;19.142;2022-07-22T08:50:18;6.70;;;5.50;;
9328;SDS011;4703;48.748;19.142;2022-07-22T08:52:47;9.60;;;5.60;;
9328;SDS011;4703;48.748;19.142;2022-07-22T08:55:14;8.93;;;6.23;;
9328;SDS011;4703;48.748;19.142;2022-07-22T08:57:45;7.17;;;5.83;;
9328;SDS011;4703;48.748;19.142;2022-07-22T09:00:15;7.30;;;6.50;;
9328;SDS011;4703;48.748;19.142;2022-07-22T09:02:45;6.90;;;6.20;;
9328;SDS011;4703;48.748;19.142;2022-07-22T09:05:14;7.03;;;6.33;;
9328;SDS011;4703;48.748;19.142;2022-07-22T09:08:02;7.93;;;7.10;;
9328;SDS011;4703;48.748;19.142;2022-07-22T09:10:31;9.27;;;6.90;;
9328;SDS011;4703;48.748;19.142;2022-07-22T09:13:01;8.40;;;6.60;;
9328;SDS011;4703;48.748;19.142;2022-07-22T09:15:53;6.67;;;6.03;;
9328;SDS011;4703;48.748;19.142;2022-07-22T09:18:21;8.00;;;6.30;;
9328;SDS011;4703;48.748;19.142;2022-07-22T09:20:51;7.73;;;6.93;;
9328;SDS011;4703;48.748;19.142;2022-07-22T09:23:25;7.57;;;6.83;;
9328;SDS011;4703;48.748;19.142;2022-07-22T09:25:52;41.40;;;10.87;;
9328;SDS011;4703;48.748;19.142;2022-07-22T09:28:20;7.97;;;6.80;;
9328;SDS011;4703;48.748;19.142;2022-07-22T09:30:51;8.17;;;7.47;;
9328;SDS011;4703;48.748;19.142;2022-07-22T09:33:22;7.77;;;7.03;;
9328;SDS011;4703;48.748;19.142;2022-07-22T09:35:51;8.60;;;7.80;;
9328;SDS011;4703;48.748;19.142;2022-07-22T09:38:26;8.37;;;7.60;;
9328;SDS011;4703;48.748;19.142;2022-07-22T09:40:55;9.77;;;7.37;;
9328;SDS011;4703;48.748;19.142;2022-07-22T09:43:22;7.83;;;7.13;;
9328;SDS011;4703;48.748;19.142;2022-07-22T09:45:50;8.10;;;7.30;;
9328;SDS011;4703;48.748;19.142;2022-07-22T09:48:25;11.13;;;6.70;;
9328;SDS011;4703;48.748;19.142;2022-07-22T09:50:54;8.70;;;7.90;;
9328;SDS011;4703;48.748;19.142;2022-07-22T09:53:27;7.80;;;7.00;;
9328;SDS011;4703;48.748;19.142;2022-07-22T09:55:56;6.97;;;6.37;;
9328;SDS011;4703;48.748;19.142;2022-07-22T09:58:25;10.20;;;6.93;;
9328;SDS011;4703;48.748;19.142;2022-07-22T10:00:54;8.07;;;7.37;;
9328;SDS011;4703;48.748;19.142;2022-07-22T10:03:26;6.70;;;6.03;;
9328;SDS011;4703;48.748;19.142;2022-07-22T10:05:56;7.27;;;6.57;;
9328;SDS011;4703;48.748;19.142;2022-07-22T10:08:24;8.43;;;7.70;;
9328;SDS011;4703;48.748;19.142;2022-07-22T10:10:53;9.70;;;7.20;;
9328;SDS011;4703;48.748;19.142;2022-07-22T10:13:27;7.27;;;6.77;;
9328;SDS011;4703;48.748;19.142;2022-07-22T10:15:55;7.63;;;6.60;;
9328;SDS011;4703;48.748;19.142;2022-07-22T10:18:23;7.33;;;6.73;;
9328;SDS011;4703;48.748;19.142;2022-07-22T10:21:08;8.03;;;7.30;;
9328;SDS011;4703;48.748;19.142;2022-07-22T10:29:26;6.83;;;6.10;;
9328;SDS011;4703;48.748;19.142;2022-07-22T10:34:43;6.23;;;5.80;;
9328;SDS011;4703;48.748;19.142;2022-07-22T10:40:19;6.87;;;6.40;;
9328;SDS011;4703;48.748;19.142;2022-07-22T10:45:27;9.40;;;6.63;;
9328;SDS011;4703;48.748;19.142;2022-07-22T10:48:10;10.93;;;7.00;;
9328;SDS011;4703;48.748;19.142;2022-07-22T10:50:42;7.30;;;6.80;;
9328;SDS011;4703;48.748;19.142;2022-07-22T10:53:17;8.90;;;7.40;;
9328;SDS011;4703;48.748;19.142;2022-07-22T10:55:58;7.10;;;6.50;;
9328;SDS011;4703;48.748;19.142;2022-07-22T10:58:50;6.90;;;6.33;;
9328;SDS011;4703;48.748;19.142;2022-07-22T11:01:40;8.73;;;7.47;;
9328;SDS011;4703;48.748;19.142;2022-07-22T11:04:16;8.00;;;7.40;;
9328;SDS011;4703;48.748;19.142;2022-07-22T11:06:47;8.67;;;7.93;;
9328;SDS011;4703;48.748;19.142;2022-07-22T11:09:17;8.30;;;7.50;;
9328;SDS011;4703;48.748;19.142;2022-07-22T11:19:32;9.00;;;8.33;;
9328;SDS011;4703;48.748;19.142;2022-07-22T11:22:00;9.87;;;8.90;;
9328;SDS011;4703;48.748;19.142;2022-07-22T11:24:31;9.00;;;8.40;;
9328;SDS011;4703;48.748;19.142;2022-07-22T11:27:00;8.77;;;7.90;;
9328;SDS011;4703;48.748;19.142;2022-07-22T11:29:32;9.27;;;8.57;;
9328;SDS011;4703;48.748;19.142;2022-07-22T11:32:03;9.37;;;8.77;;
9328;SDS011;4703;48.748;19.142;2022-07-22T11:34:34;9.67;;;9.07;;
9328;SDS011;4703;48.748;19.142;2022-07-22T11:37:04;9.67;;;9.07;;
9328;SDS011;4703;48.748;19.142;2022-07-22T11:39:31;11.17;;;10.13;;
9328;SDS011;4703;48.748;19.142;2022-07-22T11:41:58;9.40;;;8.80;;
9328;SDS011;4703;48.748;19.142;2022-07-22T11:44:29;11.87;;;9.70;;
9328;SDS011;4703;48.748;19.142;2022-07-22T11:46:59;9.63;;;8.83;;
9328;SDS011;4703;48.748;19.142;2022-07-22T11:49:28;11.20;;;10.27;;
9328;SDS011;4703;48.748;19.142;2022-07-22T11:52:02;10.80;;;9.90;;
9328;SDS011;4703;48.748;19.142;2022-07-22T11:54:30;10.70;;;9.70;;
9328;SDS011;4703;48.748;19.142;2022-07-22T11:56:57;9.90;;;9.10;;
9328;SDS011;4703;48.748;19.142;2022-07-22T11:59:24;9.93;;;9.13;;
9328;SDS011;4703;48.748;19.142;2022-07-22T12:01:51;11.50;;;10.40;;
9328;SDS011;4703;48.748;19.142;2022-07-22T12:04:21;10.93;;;9.90;;
9328;SDS011;4703;48.748;19.142;2022-07-22T12:06:51;9.87;;;9.00;;
9328;SDS011;4703;48.748;19.142;2022-07-22T12:09:28;10.93;;;9.57;;
9328;SDS011;4703;48.748;19.142;2022-07-22T12:12:01;10.83;;;9.83;;
9328;SDS011;4703;48.748;19.142;2022-07-22T12:14:31;11.57;;;10.53;;
9328;SDS011;4703;48.748;19.142;2022-07-22T12:17:07;10.10;;;9.47;;
9328;SDS011;4703;48.748;19.142;2022-07-22T12:19:39;10.93;;;10.13;;
9328;SDS011;4703;48.748;19.142;2022-07-22T12:22:09;10.87;;;9.77;;
9328;SDS011;4703;48.748;19.142;2022-07-22T12:24:42;11.47;;;10.30;;
9328;SDS011;4703;48.748;19.142;2022-07-22T12:27:13;11.17;;;10.10;;
9328;SDS011;4703;48.748;19.142;2022-07-22T12:29:46;11.23;;;10.13;;
9328;SDS011;4703;48.748;19.142;2022-07-22T12:42:39;12.37;;;11.20;;
9328;SDS011;4703;48.748;19.142;2022-07-22T12:45:16;12.67;;;11.57;;
9328;SDS011;4703;48.748;19.142;2022-07-22T12:47:48;12.83;;;11.57;;
9328;SDS011;4703;48.748;19.142;2022-07-22T12:50:29;11.40;;;10.40;;
9328;SDS011;4703;48.748;19.142;2022-07-22T12:53:01;11.17;;;10.37;;
9328;SDS011;4703;48.748;19.142;2022-07-22T12:58:14;11.47;;;10.57;;
9328;SDS011;4703;48.748;19.142;2022-07-22T13:00:47;11.90;;;10.83;;
9328;SDS011;4703;48.748;19.142;2022-07-22T13:03:20;11.23;;;10.30;;
9328;SDS011;4703;48.748;19.142;2022-07-22T13:05:50;11.60;;;10.50;;
9328;SDS011;4703;48.748;19.142;2022-07-22T13:08:19;11.60;;;10.60;;
9328;SDS011;4703;48.748;19.142;2022-07-22T13:10:48;11.50;;;10.70;;
9328;SDS011;4703;48.748;19.142;2022-07-22T13:13:16;11.27;;;10.37;;
9328;SDS011;4703;48.748;19.142;2022-07-22T13:15:44;10.60;;;9.80;;
9328;SDS011;4703;48.748;19.142;2022-07-22T13:18:12;11.13;;;10.33;;
9328;SDS011;4703;48.748;19.142;2022-07-22T13:20:39;9.70;;;9.07;;
9328;SDS011;4703;48.748;19.142;2022-07-22T13:23:06;10.37;;;9.57;;
9328;SDS011;4703;48.748;19.142;2022-07-22T13:25:33;9.43;;;8.73;;
9328;SDS011;4703;48.748;19.142;2022-07-22T13:28:02;9.30;;;8.60;;
9328;SDS011;4703;48.748;19.142;2022-07-22T13:30:30;9.43;;;8.73;;
9328;SDS011;4703;48.748;19.142;2022-07-22T13:32:57;9.70;;;8.93;;
9328;SDS011;4703;48.748;19.142;2022-07-22T13:35:24;9.87;;;9.13;;
9328;SDS011;4703;48.748;19.142;2022-07-22T13:37:51;8.73;;;8.23;;
9328;SDS011;4703;48.748;19.142;2022-07-22T13:40:19;9.80;;;9.10;;
9328;SDS011;4703;48.748;19.142;2022-07-22T13:42:46;9.73;;;8.83;;
9328;SDS011;4703;48.748;19.142;2022-07-22T13:45:13;10.27;;;9.57;;
9328;SDS011;4703;48.748;19.142;2022-07-22T13:47:40;10.10;;;9.30;;
9328;SDS011;4703;48.748;19.142;2022-07-22T13:50:08;9.73;;;8.90;;
9328;SDS011;4703;48.748;19.142;2022-07-22T13:52:36;8.77;;;8.07;;
9328;SDS011;4703;48.748;19.142;2022-07-22T13:55:03;8.83;;;8.20;;
9328;SDS011;4703;48.748;19.142;2022-07-22T13:57:31;9.80;;;8.90;;
9328;SDS011;4703;48.748;19.142;2022-07-22T13:59:59;9.17;;;8.37;;
9328;SDS011;4703;48.748;19.142;2022-07-22T14:02:27;8.53;;;7.93;;
9328;SDS011;4703;48.748;19.142;2022-07-22T14:04:54;9.50;;;8.63;;
9328;SDS011;4703;48.748;19.142;2022-07-22T14:07:21;8.97;;;8.30;;
9328;SDS011;4703;48.748;19.142;2022-07-22T14:09:48;9.23;;;8.47;;
9328;SDS011;4703;48.748;19.142;2022-07-22T14:12:15;10.33;;;9.50;;
9328;SDS011;4703;48.748;19.142;2022-07-22T14:14:43;10.00;;;9.17;;
9328;SDS011;4703;48.748;19.142;2022-07-22T14:17:10;10.40;;;9.60;;
9328;SDS011;4703;48.748;19.142;2022-07-22T14:19:38;9.40;;;8.70;;
9328;SDS011;4703;48.748;19.142;2022-07-22T14:22:05;9.33;;;8.73;;
9328;SDS011;4703;48.748;19.142;2022-07-22T14:24:32;9.50;;;8.53;;
9328;SDS011;4703;48.748;19.142;2022-07-22T14:26:59;9.50;;;8.80;;
9328;SDS011;4703;48.748;19.142;2022-07-22T14:29:26;9.23;;;8.50;;
9328;SDS011;4703;48.748;19.142;2022-07-22T14:31:53;9.27;;;8.60;;
9328;SDS011;4703;48.748;19.142;2022-07-22T14:34:20;9.63;;;8.83;;
9328;SDS011;4703;48.748;19.142;2022-07-22T14:36:47;9.90;;;8.37;;
9328;SDS011;4703;48.748;19.142;2022-07-22T14:39:15;11.90;;;10.80;;
9328;SDS011;4703;48.748;19.142;2022-07-22T14:41:42;21.50;;;19.50;;
9328;SDS011;4703;48.748;19.142;2022-07-22T14:44:15;18.87;;;17.27;;
9328;SDS011;4703;48.748;19.142;2022-07-22T14:46:42;9.97;;;9.27;;
9328;SDS011;4703;48.748;19.142;2022-07-22T14:49:09;10.50;;;9.60;;
9328;SDS011;4703;48.748;19.142;2022-07-22T14:51:41;9.70;;;9.10;;
9328;SDS011;4703;48.748;19.142;2022-07-22T14:54:09;10.70;;;9.70;;
9328;SDS011;4703;48.748;19.142;2022-07-22T14:56:38;9.60;;;9.00;;
9328;SDS011;4703;48.748;19.142;2022-07-22T14:59:06;10.33;;;9.63;;
9328;SDS011;4703;48.748;19.142;2022-07-22T15:01:33;10.60;;;9.57;;
9328;SDS011;4703;48.748;19.142;2022-07-22T15:04:00;10.93;;;10.13;;
9328;SDS011;4703;48.748;19.142;2022-07-22T15:06:28;9.50;;;8.80;;
9328;SDS011;4703;48.748;19.142;2022-07-22T15:08:55;9.13;;;8.60;;
9328;SDS011;4703;48.748;19.142;2022-07-22T15:11:22;9.73;;;9.13;;
9328;SDS011;4703;48.748;19.142;2022-07-22T15:13:49;9.60;;;8.90;;
9328;SDS011;4703;48.748;19.142;2022-07-22T15:16:16;9.47;;;8.77;;
9328;SDS011;4703;48.748;19.142;2022-07-22T15:18:43;9.87;;;9.17;;
9328;SDS011;4703;48.748;19.142;2022-07-22T15:21:10;10.73;;;9.50;;
9328;SDS011;4703;48.748;19.142;2022-07-22T15:23:37;9.30;;;8.80;;
9328;SDS011;4703;48.748;19.142;2022-07-22T15:26:04;10.00;;;9.30;;
9328;SDS011;4703;48.748;19.142;2022-07-22T15:28:31;9.90;;;9.20;;
9328;SDS011;4703;48.748;19.142;2022-07-22T15:31:00;10.73;;;9.93;;
9328;SDS011;4703;48.748;19.142;2022-07-22T15:33:28;9.80;;;9.10;;
9328;SDS011;4703;48.748;19.142;2022-07-22T15:36:07;9.70;;;9.00;;
9328;SDS011;4703;48.748;19.142;2022-07-22T15:38:36;9.63;;;9.03;;